createdAt,value
2023-02-23T00:00:35.297Z,12.00
2023-02-23T00:03:03.513Z,11.90
2023-02-23T00:05:36.524Z,11.90
2023-02-23T00:08:05.197Z,11.90
2023-02-23T00:10:33.598Z,11.90
2023-02-23T00:13:01.762Z,11.80
2023-02-23T00:15:29.962Z,11.70
2023-02-23T00:17:58.457Z,11.70
2023-02-23T00:20:27.418Z,11.80
2023-02-23T00:22:57.278Z,11.70
2023-02-23T00:25:25.655Z,11.80
2023-02-23T00:27:54.899Z,11.70
2023-02-23T00:30:23.789Z,11.80
2023-02-23T00:32:54.630Z,11.80
2023-02-23T00:35:24.894Z,11.90
2023-02-23T00:37:53.076Z,11.90
2023-02-23T00:40:23.817Z,11.90
2023-02-23T00:42:52.880Z,11.90
2023-02-23T00:45:20.915Z,11.80
2023-02-23T00:47:49.529Z,11.80
2023-02-23T00:50:18.239Z,11.80
2023-02-23T00:52:46.293Z,11.80
2023-02-23T00:55:15.076Z,11.90
2023-02-23T00:57:44.510Z,11.90
2023-02-23T01:00:20.280Z,11.80
2023-02-23T01:02:48.391Z,11.90
2023-02-23T01:05:16.697Z,11.90
2023-02-23T01:07:46.461Z,11.90
2023-02-23T01:10:20.309Z,11.90
2023-02-23T01:12:51.069Z,11.90
2023-02-23T01:15:19.844Z,11.90
2023-02-23T01:17:48.064Z,11.80
2023-02-23T01:20:18.397Z,11.80
2023-02-23T01:22:46.561Z,11.80
2023-02-23T01:25:14.695Z,11.80
2023-02-23T01:27:43.674Z,11.80
2023-02-23T01:30:14.850Z,11.90
2023-02-23T01:32:42.919Z,11.90
2023-02-23T01:35:12.646Z,11.90
2023-02-23T01:37:41.644Z,11.90
2023-02-23T01:40:14.245Z,11.90
2023-02-23T01:42:43.315Z,11.80
2023-02-23T01:45:35.735Z,11.80
2023-02-23T01:48:06.237Z,11.80
2023-02-23T01:50:46.460Z,11.80
2023-02-23T01:53:14.513Z,11.80
2023-02-23T01:55:43.684Z,11.70
2023-02-23T01:58:15.514Z,11.80
2023-02-23T02:00:49.119Z,11.80
2023-02-23T02:03:20.026Z,11.80
2023-02-23T02:05:48.249Z,11.80
2023-02-23T02:08:16.342Z,11.90
2023-02-23T02:10:46.447Z,11.90
2023-02-23T02:13:18.309Z,11.90
2023-02-23T02:16:32.468Z,11.80
2023-02-23T02:19:16.871Z,11.80
2023-02-23T02:21:52.957Z,11.70
2023-02-23T02:24:54.244Z,11.60
2023-02-23T02:27:27.918Z,11.60
2023-02-23T02:30:23.084Z,11.70
2023-02-23T02:33:24.250Z,11.80
2023-02-23T02:36:19.356Z,11.80
2023-02-23T02:38:54.013Z,11.80
2023-02-23T02:41:27.123Z,11.80
2023-02-23T02:43:58.865Z,11.80
2023-02-23T02:46:28.756Z,11.80
2023-02-23T02:48:59.359Z,11.80
2023-02-23T02:51:29.556Z,11.80
2023-02-23T02:54:06.896Z,11.80
2023-02-23T02:56:40.506Z,11.70
2023-02-23T02:59:26.811Z,11.80
2023-02-23T03:02:12.361Z,11.80
2023-02-23T03:04:57.886Z,11.80
2023-02-23T03:07:45.591Z,11.80
2023-02-23T03:10:34.131Z,11.80
2023-02-23T03:13:25.343Z,11.80
2023-02-23T03:16:14.569Z,11.80
2023-02-23T03:19:08.381Z,11.80
2023-02-23T03:21:57.834Z,11.80
2023-02-23T03:24:48.242Z,11.70
2023-02-23T03:27:38.572Z,11.70
2023-02-23T03:30:26.413Z,11.70
2023-02-23T03:33:13.203Z,11.70
2023-02-23T03:36:01.830Z,11.80
2023-02-23T03:38:49.465Z,11.80
2023-02-23T03:41:34.877Z,11.80
2023-02-23T03:44:23.538Z,11.90
2023-02-23T03:47:14.905Z,11.80
2023-02-23T03:50:00.544Z,11.80
2023-02-23T03:52:54.719Z,11.80
2023-02-23T03:55:41.303Z,11.70
2023-02-23T03:58:30.074Z,11.70
2023-02-23T04:01:17.483Z,11.60
2023-02-23T04:04:03.197Z,11.70
2023-02-23T04:06:51.047Z,11.80
2023-02-23T04:09:36.534Z,11.70
2023-02-23T04:12:24.791Z,11.80
2023-02-23T04:14:54.815Z,11.80
2023-02-23T04:17:25.256Z,11.90
2023-02-23T04:19:53.385Z,11.90
2023-02-23T04:22:21.492Z,11.80
2023-02-23T04:24:49.567Z,11.80
2023-02-23T04:27:17.905Z,11.70
2023-02-23T04:29:46.420Z,11.60
2023-02-23T04:32:15.795Z,11.60
2023-02-23T04:34:45.331Z,11.60
2023-02-23T04:37:13.560Z,11.60
2023-02-23T04:39:42.760Z,11.60
2023-02-23T04:42:10.826Z,11.70
2023-02-23T04:44:38.843Z,11.70
2023-02-23T04:47:06.917Z,11.80
2023-02-23T04:49:34.958Z,11.80
2023-02-23T04:52:04.484Z,11.80
2023-02-23T04:54:32.512Z,11.80
2023-02-23T04:57:00.544Z,11.80
2023-02-23T04:59:28.658Z,11.80
2023-02-23T05:01:56.699Z,11.70
2023-02-23T05:04:24.775Z,11.70
2023-02-23T05:06:53.208Z,11.70
2023-02-23T05:09:22.637Z,11.60
2023-02-23T05:11:50.657Z,11.80
2023-02-23T05:14:21.748Z,11.70
2023-02-23T05:16:49.843Z,11.70
2023-02-23T05:19:18.329Z,11.80
2023-02-23T05:21:46.344Z,11.80
2023-02-23T05:24:14.402Z,11.80
2023-02-23T05:26:43.835Z,11.80
2023-02-23T05:29:11.869Z,11.80
2023-02-23T05:31:40.025Z,11.70
2023-02-23T05:34:08.105Z,11.70
2023-02-23T05:36:37.103Z,11.70
2023-02-23T05:39:05.312Z,11.70
2023-02-23T05:41:33.747Z,11.70
2023-02-23T05:44:03.137Z,11.80
2023-02-23T05:46:31.169Z,11.80
2023-02-23T05:49:00.840Z,11.80
2023-02-23T05:51:29.084Z,11.80
2023-02-23T05:53:57.174Z,11.80
2023-02-23T05:56:25.297Z,11.80
2023-02-23T05:58:53.865Z,11.80
2023-02-23T06:01:23.358Z,11.80
2023-02-23T06:03:51.645Z,11.60
2023-02-23T06:06:20.309Z,11.70
2023-02-23T06:08:48.314Z,11.70
2023-02-23T06:11:16.380Z,11.70
2023-02-23T06:13:44.398Z,11.80
2023-02-23T06:16:12.503Z,11.80
2023-02-23T06:18:41.980Z,11.80
2023-02-23T06:21:10.001Z,11.80
2023-02-23T06:23:38.144Z,11.80
2023-02-23T06:26:06.511Z,11.80
2023-02-23T06:28:34.574Z,11.80
2023-02-23T06:31:02.705Z,11.80
2023-02-23T06:33:30.849Z,11.70
2023-02-23T06:36:00.264Z,11.60
2023-02-23T06:38:28.268Z,11.60
2023-02-23T06:40:56.272Z,11.60
2023-02-23T06:43:24.325Z,11.60
2023-02-23T06:45:52.520Z,11.70
2023-02-23T06:48:20.530Z,11.70
2023-02-23T06:50:48.575Z,11.70
2023-02-23T06:53:18.386Z,11.80
2023-02-23T06:55:46.412Z,11.80
2023-02-23T06:58:14.426Z,11.80
2023-02-23T07:00:43.725Z,11.80
2023-02-23T07:03:11.931Z,11.80
2023-02-23T07:05:41.026Z,11.80
2023-02-23T07:08:09.150Z,11.70
2023-02-23T07:10:38.554Z,11.60
2023-02-23T07:13:06.634Z,11.60
2023-02-23T07:15:35.709Z,11.70
2023-02-23T07:18:03.730Z,11.70
2023-02-23T07:20:32.928Z,11.80
2023-02-23T07:23:01.182Z,11.80
2023-02-23T07:25:29.224Z,11.80
2023-02-23T07:27:59.531Z,11.80
2023-02-23T07:30:27.597Z,11.80
2023-02-23T07:32:55.650Z,11.80
2023-02-23T07:35:23.662Z,11.80
2023-02-23T07:37:51.753Z,11.80
2023-02-23T07:40:20.421Z,11.70
2023-02-23T07:42:48.446Z,11.70
2023-02-23T07:45:18.006Z,11.70
2023-02-23T07:47:46.106Z,11.80
2023-02-23T07:50:14.557Z,11.70
2023-02-23T07:52:43.364Z,11.80
2023-02-23T07:55:11.577Z,11.90
2023-02-23T07:57:39.697Z,11.90
2023-02-23T08:00:08.859Z,11.90
2023-02-23T08:02:38.284Z,11.90
2023-02-23T08:05:06.957Z,11.90
2023-02-23T08:07:35.013Z,11.80
2023-02-23T08:10:03.058Z,11.80
2023-02-23T08:12:31.461Z,11.80
2023-02-23T08:14:59.509Z,11.70
2023-02-23T08:17:27.555Z,11.80
2023-02-23T08:19:56.956Z,11.80
2023-02-23T08:22:24.981Z,11.80
2023-02-23T08:24:53.032Z,11.80
2023-02-23T08:27:21.087Z,11.80
2023-02-23T08:29:49.196Z,11.90
2023-02-23T08:32:17.279Z,11.80
2023-02-23T08:34:45.354Z,11.80
2023-02-23T08:37:14.732Z,11.90
2023-02-23T08:39:43.724Z,11.80
2023-02-23T08:42:11.774Z,11.80
2023-02-23T08:44:39.777Z,11.70
2023-02-23T08:47:07.833Z,11.70
2023-02-23T08:49:35.844Z,11.70
2023-02-23T08:52:03.892Z,11.80
2023-02-23T08:54:33.383Z,11.80
2023-02-23T08:57:01.496Z,11.70
2023-02-23T08:59:29.589Z,11.80
2023-02-23T09:01:57.642Z,11.80
2023-02-23T09:04:25.708Z,11.80
2023-02-23T09:06:54.464Z,11.80
2023-02-23T09:09:22.520Z,11.80
2023-02-23T09:11:51.921Z,11.90
2023-02-23T09:14:19.961Z,11.90
2023-02-23T09:16:48.035Z,11.90
2023-02-23T09:19:16.092Z,11.80
2023-02-23T09:21:44.612Z,11.90
2023-02-23T09:24:13.709Z,11.90
2023-02-23T09:26:43.531Z,11.90
2023-02-23T09:29:14.399Z,11.80
2023-02-23T09:31:43.736Z,11.90
2023-02-23T09:34:12.744Z,11.90
2023-02-23T09:36:40.807Z,11.90
2023-02-23T09:39:08.838Z,11.90
2023-02-23T09:41:55.217Z,11.90
2023-02-23T09:44:28.008Z,11.90
2023-02-23T09:47:02.949Z,11.90
2023-02-23T09:49:31.097Z,11.80
2023-02-23T09:51:59.832Z,11.80
2023-02-23T09:54:29.600Z,11.90
2023-02-23T09:56:58.442Z,11.80
2023-02-23T09:59:28.877Z,11.90
2023-02-23T10:02:00.254Z,11.90
2023-02-23T10:04:29.485Z,11.90
2023-02-23T10:07:00.673Z,12.00
2023-02-23T10:09:45.337Z,12.00
2023-02-23T10:12:18.275Z,12.00
2023-02-23T10:15:00.900Z,12.00
2023-02-23T10:17:37.601Z,12.00
2023-02-23T10:20:11.984Z,11.90
2023-02-23T10:22:40.821Z,11.90
2023-02-23T10:25:11.692Z,11.90
2023-02-23T10:27:41.953Z,11.90
2023-02-23T10:30:18.914Z,12.00
2023-02-23T10:32:50.619Z,11.90
2023-02-23T10:35:20.477Z,12.00
2023-02-23T10:37:48.583Z,12.00
2023-02-23T10:40:17.270Z,12.00
2023-02-23T10:42:45.405Z,12.00
2023-02-23T10:45:18.800Z,12.00
2023-02-23T10:47:46.809Z,12.00
2023-02-23T10:50:14.891Z,12.00
2023-02-23T10:52:43.720Z,12.00
2023-02-23T10:55:23.670Z,11.90
2023-02-23T10:57:52.664Z,11.90
2023-02-23T11:00:33.100Z,11.90
2023-02-23T11:03:03.199Z,11.90
2023-02-23T11:05:36.932Z,11.90
2023-02-23T11:08:27.243Z,11.90
2023-02-23T11:11:02.708Z,12.00
2023-02-23T11:13:34.720Z,12.10
2023-02-23T11:16:05.121Z,12.10
2023-02-23T11:18:33.174Z,12.10
2023-02-23T11:21:02.006Z,12.10
2023-02-23T11:23:30.705Z,12.10
2023-02-23T11:26:03.526Z,12.10
2023-02-23T11:28:34.251Z,12.10
2023-02-23T11:31:05.046Z,12.00
2023-02-23T11:33:36.008Z,12.00
2023-02-23T11:36:18.965Z,12.00
2023-02-23T11:38:47.525Z,12.10
2023-02-23T11:41:22.987Z,12.10
2023-02-23T11:43:52.136Z,12.10
2023-02-23T11:46:22.915Z,12.10
2023-02-23T11:48:52.654Z,12.10
2023-02-23T11:51:25.620Z,12.20
2023-02-23T11:53:53.667Z,12.20
2023-02-23T11:56:23.882Z,12.20
2023-02-23T11:58:53.919Z,12.20
2023-02-23T12:01:25.009Z,12.20
2023-02-23T12:03:55.066Z,12.20
2023-02-23T12:06:31.151Z,12.10
2023-02-23T12:09:03.323Z,12.10
2023-02-23T12:11:34.583Z,12.10
2023-02-23T12:14:04.404Z,12.10
2023-02-23T12:16:35.681Z,12.20
2023-02-23T12:19:05.983Z,12.20
2023-02-23T12:21:36.128Z,12.20
2023-02-23T12:24:14.524Z,12.20
2023-02-23T12:26:46.507Z,12.20
2023-02-23T12:29:19.774Z,12.20
2023-02-23T12:31:50.705Z,12.10
2023-02-23T12:34:20.663Z,12.20
2023-02-23T12:36:50.823Z,12.10
2023-02-23T12:39:22.564Z,12.20
2023-02-23T12:41:56.499Z,12.10
2023-02-23T12:44:32.679Z,12.10
2023-02-23T12:47:05.669Z,12.20
2023-02-23T12:49:36.814Z,12.20
2023-02-23T12:52:08.612Z,12.20
2023-02-23T12:54:37.168Z,12.20
2023-02-23T12:57:10.398Z,12.20
2023-02-23T13:00:20.435Z,12.20
2023-02-23T13:02:51.276Z,12.10
2023-02-23T13:05:24.482Z,12.10
2023-02-23T13:08:11.560Z,12.00
2023-02-23T13:10:45.267Z,12.00
2023-02-23T13:13:23.107Z,12.10
2023-02-23T13:15:57.402Z,12.10
2023-02-23T13:18:29.461Z,12.10
2023-02-23T13:21:00.367Z,12.20
2023-02-23T13:23:31.128Z,12.20
2023-02-23T13:26:02.236Z,12.20
2023-02-23T13:28:37.582Z,12.20
2023-02-23T13:31:06.134Z,12.20
2023-02-23T13:33:43.997Z,12.20
2023-02-23T13:36:12.953Z,12.20
2023-02-23T13:38:43.480Z,12.20
2023-02-23T13:41:14.307Z,12.20
2023-02-23T13:43:45.606Z,12.20
2023-02-23T13:46:19.381Z,12.20
2023-02-23T13:48:57.371Z,12.10
2023-02-23T13:51:32.503Z,12.20
2023-02-23T13:54:02.046Z,12.20
2023-02-23T13:56:30.915Z,12.30
2023-02-23T13:59:01.277Z,12.30
2023-02-23T14:01:31.873Z,12.30
2023-02-23T14:04:02.463Z,12.30
2023-02-23T14:06:31.792Z,12.30
2023-02-23T14:09:01.974Z,12.20
2023-02-23T14:11:35.591Z,12.20
2023-02-23T14:14:03.851Z,12.20
2023-02-23T14:16:32.414Z,12.20
2023-02-23T14:19:11.528Z,12.20
2023-02-23T14:21:44.599Z,12.20
2023-02-23T14:24:19.329Z,12.20
2023-02-23T14:27:39.800Z,12.30
2023-02-23T14:30:22.857Z,12.30
2023-02-23T14:32:50.986Z,12.30
2023-02-23T14:35:44.184Z,12.20
2023-02-23T14:38:17.269Z,12.20
2023-02-23T14:40:48.936Z,12.30
2023-02-23T14:43:50.949Z,12.20
2023-02-23T14:46:20.988Z,12.20
2023-02-23T14:49:08.004Z,12.20
2023-02-23T14:51:42.301Z,12.20
2023-02-23T14:54:16.275Z,12.30
2023-02-23T14:56:48.033Z,12.30
2023-02-23T14:59:19.660Z,12.30
2023-02-23T15:01:48.046Z,12.40
2023-02-23T15:04:18.560Z,12.40
2023-02-23T15:06:48.178Z,12.20
2023-02-23T15:09:21.176Z,12.20
2023-02-23T15:11:50.093Z,12.20
2023-02-23T15:14:27.551Z,12.10
2023-02-23T15:16:56.804Z,12.20
2023-02-23T15:19:32.068Z,12.20
2023-02-23T15:22:01.957Z,12.20
2023-02-23T15:24:32.959Z,12.20
2023-02-23T15:27:01.023Z,12.20
2023-02-23T15:29:33.059Z,12.30
2023-02-23T15:32:15.155Z,12.30
2023-02-23T15:34:43.276Z,12.20
2023-02-23T15:37:15.911Z,12.20
2023-02-23T15:39:46.490Z,12.20
2023-02-23T15:42:15.532Z,12.20
2023-02-23T15:44:45.111Z,12.30
2023-02-23T15:47:19.999Z,12.20
2023-02-23T15:49:48.139Z,12.20
2023-02-23T15:52:19.367Z,12.30
2023-02-23T15:54:49.578Z,12.30
2023-02-23T15:57:20.302Z,12.30
2023-02-23T15:59:48.753Z,12.30
2023-02-23T16:02:19.288Z,12.30
2023-02-23T16:04:49.897Z,12.30
2023-02-23T16:07:22.712Z,12.30
2023-02-23T16:09:52.885Z,12.20
2023-02-23T16:12:22.881Z,12.20
2023-02-23T16:14:54.104Z,12.20
2023-02-23T16:17:28.140Z,12.20
2023-02-23T16:19:58.438Z,12.30
2023-02-23T16:22:28.932Z,12.30
2023-02-23T16:25:01.784Z,12.30
2023-02-23T16:27:30.044Z,12.30
2023-02-23T16:30:01.167Z,12.30
2023-02-23T16:32:37.494Z,12.20
2023-02-23T16:35:11.142Z,12.30
2023-02-23T16:37:52.760Z,12.20
2023-02-23T16:40:20.923Z,12.20
2023-02-23T16:42:49.115Z,12.20
2023-02-23T16:45:18.218Z,12.20
2023-02-23T16:47:48.271Z,12.30
2023-02-23T16:50:20.530Z,12.20
2023-02-23T16:52:51.952Z,12.30
2023-02-23T16:55:26.079Z,12.30
2023-02-23T16:57:55.599Z,12.30
2023-02-23T17:00:25.151Z,12.30
2023-02-23T17:02:53.270Z,12.20
2023-02-23T17:05:23.777Z,12.20
2023-02-23T17:07:51.866Z,12.20
2023-02-23T17:10:26.265Z,12.20
2023-02-23T17:12:55.357Z,12.20
2023-02-23T17:15:23.889Z,12.10
2023-02-23T17:17:53.527Z,12.10
2023-02-23T17:20:22.378Z,12.20
2023-02-23T17:22:50.745Z,12.20
2023-02-23T17:25:18.815Z,12.20
2023-02-23T17:27:48.122Z,12.20
2023-02-23T17:30:16.381Z,12.20
2023-02-23T17:32:44.546Z,12.30
2023-02-23T17:35:12.707Z,12.20
2023-02-23T17:37:40.686Z,12.20
2023-02-23T17:40:09.525Z,12.20
2023-02-23T17:42:37.564Z,12.10
2023-02-23T17:45:08.271Z,12.10
2023-02-23T17:47:36.871Z,12.10
2023-02-23T17:50:05.176Z,12.20
2023-02-23T17:52:33.112Z,12.30
2023-02-23T17:55:02.450Z,12.20
2023-02-23T17:57:30.500Z,12.20
2023-02-23T17:59:58.650Z,12.20
2023-02-23T18:02:28.086Z,12.20
2023-02-23T18:04:56.276Z,12.20
2023-02-23T18:07:24.460Z,12.20
2023-02-23T18:09:52.666Z,12.10
2023-02-23T18:12:20.834Z,12.10
2023-02-23T18:14:48.918Z,12.10
2023-02-23T18:17:17.062Z,12.10
2023-02-23T18:19:47.901Z,12.10
2023-02-23T18:22:16.217Z,12.20
2023-02-23T18:24:44.461Z,12.20
2023-02-23T18:27:12.750Z,12.30
2023-02-23T18:29:41.088Z,12.20
2023-02-23T18:32:09.570Z,12.20
2023-02-23T18:34:38.092Z,12.20
2023-02-23T18:37:10.192Z,12.20
2023-02-23T18:39:38.544Z,12.20
2023-02-23T18:42:07.161Z,12.00
2023-02-23T18:44:35.442Z,12.10
2023-02-23T18:47:03.581Z,12.10
2023-02-23T18:49:32.664Z,12.10
2023-02-23T18:52:00.796Z,12.20
2023-02-23T18:54:30.354Z,12.20
2023-02-23T18:56:58.528Z,12.20
2023-02-23T18:59:26.624Z,12.20
2023-02-23T19:01:55.783Z,12.20
2023-02-23T19:04:24.940Z,12.20
2023-02-23T19:06:53.144Z,12.20
2023-02-23T19:09:21.493Z,12.10
2023-02-23T19:11:53.320Z,12.00
2023-02-23T19:14:32.861Z,12.00
2023-02-23T19:17:05.041Z,12.00
2023-02-23T19:19:33.177Z,12.10
2023-02-23T19:22:01.775Z,12.10
2023-02-23T19:24:29.869Z,12.10
2023-02-23T19:26:59.394Z,12.10
2023-02-23T19:29:27.966Z,12.10
2023-02-23T19:31:56.174Z,12.10
2023-02-23T19:34:24.518Z,12.10
2023-02-23T19:36:52.747Z,12.10
2023-02-23T19:39:20.877Z,12.10
2023-02-23T19:41:49.188Z,12.10
2023-02-23T19:44:18.694Z,12.20
2023-02-23T19:46:46.893Z,12.10
2023-02-23T19:49:15.005Z,12.10
2023-02-23T19:51:44.457Z,12.10
2023-02-23T19:54:12.683Z,12.10
2023-02-23T19:56:40.873Z,12.10
2023-02-23T19:59:08.960Z,12.10
2023-02-23T20:01:38.640Z,12.10
2023-02-23T20:04:08.641Z,12.20
2023-02-23T20:06:40.980Z,12.10
2023-02-23T20:09:09.633Z,12.10
2023-02-23T20:11:37.723Z,12.10
2023-02-23T20:14:08.004Z,12.10
2023-02-23T20:16:36.421Z,12.10
2023-02-23T20:19:06.630Z,12.10
2023-02-23T20:21:34.881Z,12.10
2023-02-23T20:24:05.593Z,12.10
2023-02-23T20:26:35.474Z,12.10
2023-02-23T20:29:03.902Z,12.10
2023-02-23T20:31:35.233Z,12.10
2023-02-23T20:34:05.842Z,12.10
2023-02-23T20:36:33.994Z,12.10
2023-02-23T20:39:02.191Z,12.10
2023-02-23T20:41:32.125Z,12.10
2023-02-23T20:44:01.219Z,12.10
2023-02-23T20:46:30.990Z,12.10
2023-02-23T20:48:59.463Z,12.00
2023-02-23T20:51:29.215Z,12.00
2023-02-23T20:53:57.304Z,12.10
2023-02-23T20:56:25.555Z,12.10
2023-02-23T20:58:54.522Z,12.10
2023-02-23T21:01:26.429Z,12.10
2023-02-23T21:03:54.947Z,12.10
2023-02-23T21:06:25.045Z,12.10
2023-02-23T21:08:55.917Z,12.10
2023-02-23T21:11:25.766Z,12.10
2023-02-23T21:13:53.903Z,12.10
2023-02-23T21:16:23.652Z,12.10
2023-02-23T21:19:03.908Z,12.00
2023-02-23T21:21:33.257Z,11.90
2023-02-23T21:24:02.993Z,12.00
2023-02-23T21:26:31.696Z,12.00
2023-02-23T21:28:59.796Z,11.90
2023-02-23T21:31:27.989Z,11.90
2023-02-23T21:33:56.130Z,12.10
2023-02-23T21:36:24.456Z,12.00
2023-02-23T21:38:52.704Z,12.00
2023-02-23T21:41:23.069Z,12.10
2023-02-23T21:43:54.019Z,12.10
2023-02-23T21:46:23.153Z,12.10
2023-02-23T21:48:51.403Z,12.10
2023-02-23T21:51:20.013Z,12.10
2023-02-23T21:53:48.472Z,12.00
2023-02-23T21:56:17.897Z,12.00
2023-02-23T21:58:48.722Z,12.00
2023-02-23T22:01:18.887Z,12.00
2023-02-23T22:03:47.181Z,12.00
2023-02-23T22:06:15.822Z,12.10
2023-02-23T22:08:44.969Z,12.10
2023-02-23T22:11:17.482Z,12.20
2023-02-23T22:13:47.044Z,12.10
2023-02-23T22:16:15.730Z,12.10
2023-02-23T22:18:43.911Z,12.10
2023-02-23T22:21:13.043Z,12.10
2023-02-23T22:23:41.604Z,12.00
2023-02-23T22:26:09.856Z,12.00
2023-02-23T22:28:37.992Z,12.00
2023-02-23T22:31:08.934Z,12.00
2023-02-23T22:33:37.174Z,12.10
2023-02-23T22:36:06.844Z,12.00
2023-02-23T22:38:34.957Z,12.10
2023-02-23T22:41:05.103Z,12.10
2023-02-23T22:43:34.435Z,12.00
2023-02-23T22:46:02.525Z,12.10
2023-02-23T22:48:32.026Z,12.10
2023-02-23T22:51:00.241Z,12.10
2023-02-23T22:53:28.375Z,12.10
2023-02-23T22:55:56.628Z,12.00
2023-02-23T22:58:26.399Z,12.00
2023-02-23T23:01:04.172Z,12.00
2023-02-23T23:03:35.906Z,12.00
2023-02-23T23:06:04.648Z,12.00
2023-02-23T23:08:36.481Z,12.10
2023-02-23T23:11:09.455Z,12.10
2023-02-23T23:13:40.100Z,12.10
2023-02-23T23:16:16.801Z,12.10
2023-02-23T23:18:55.726Z,12.10
2023-02-23T23:21:26.366Z,12.10
2023-02-23T23:23:55.696Z,12.00
2023-02-23T23:26:25.650Z,12.00
2023-02-23T23:28:55.257Z,11.90
2023-02-23T23:31:28.039Z,11.90
2023-02-23T23:34:00.159Z,11.80
2023-02-23T23:36:32.192Z,11.90
2023-02-23T23:39:00.274Z,12.00
2023-02-23T23:41:28.885Z,12.10
2023-02-23T23:43:58.111Z,12.00
2023-02-23T23:46:27.916Z,12.10
2023-02-23T23:48:58.001Z,12.10
2023-02-23T23:51:27.559Z,12.10
2023-02-23T23:53:55.725Z,12.10
2023-02-23T23:56:23.701Z,12.10
2023-02-23T23:58:52.518Z,12.10
